Time;durP1;ratioP1;P1;durP2;ratioP2;P2;SDS_P1;SDS_P2;PMS_P1;PMS_P2;Temp;Humidity;BMP_temperature;BMP_pressure;BME280_temperature;BME280_humidity;BME280_pressure;Samples;Min_cycle;Max_cycle;Signal;HPM_P1;HPM_P2
2023/12/25 00:01:28;;;;;;;2.03;1.93;;;;;;;6.40;nan;60416.50;4992064;28;20303;-64
2023/12/25 00:03:53;;;;;;;1.73;1.63;;;;;;;6.15;nan;60403.72;4993676;28;20177;-63
2023/12/25 00:06:19;;;;;;;2.20;2.10;;;;;;;6.24;nan;60598.88;4993626;28;20177;-62
2023/12/25 00:08:45;;;;;;;1.67;1.57;;;;;;;6.37;nan;60435.41;4993292;28;20597;-64
2023/12/25 00:11:10;;;;;;;1.63;1.53;;;;;;;6.18;nan;60412.13;4993315;28;20599;-62
2023/12/25 00:13:36;;;;;;;3.43;2.03;;;;;;;6.16;nan;60392.13;4993227;28;20601;-63
2023/12/25 00:16:01;;;;;;;3.10;2.10;;;;;;;6.12;nan;60428.78;4992938;28;20293;-64
2023/12/25 00:18:27;;;;;;;1.73;1.63;;;;;;;6.44;nan;60412.81;4993098;28;20559;-64
2023/12/25 00:20:52;;;;;;;1.80;1.70;;;;;;;6.20;nan;60427.03;4993158;28;20652;-64
2023/12/25 00:23:18;;;;;;;1.50;1.40;;;;;;;6.37;nan;60435.97;4996330;28;20188;-64
2023/12/25 00:25:43;;;;;;;1.80;1.70;;;;;;;6.27;nan;60411.50;4992820;28;20173;-64
2023/12/25 00:28:08;;;;;;;2.07;1.80;;;;;;;6.32;nan;60443.03;4992998;28;20635;-63
2023/12/25 00:30:34;;;;;;;2.50;1.90;;;;;;;6.29;nan;60489.84;4992737;28;20278;-65
2023/12/25 00:32:59;;;;;;;1.70;1.60;;;;;;;6.14;nan;60398.06;4992999;28;20176;-64
2023/12/25 00:35:25;;;;;;;1.60;1.53;;;;;;;5.89;nan;60466.34;4992277;28;20592;-65
2023/12/25 00:37:51;;;;;;;4.60;3.40;;;;;;;6.03;nan;60383.22;4992545;28;20177;-62
2023/12/25 00:40:17;;;;;;;1.70;1.63;;;;;;;6.18;nan;60435.50;4992748;28;20626;-64
2023/12/25 00:42:42;;;;;;;2.50;1.97;;;;;;;6.07;nan;60385.16;4992528;28;20235;-63
2023/12/25 00:45:08;;;;;;;2.00;1.90;;;;;;;5.98;nan;60412.53;4992490;28;20181;-64
2023/12/25 00:47:33;;;;;;;2.40;2.20;;;;;;;5.72;nan;60376.34;4993029;28;20262;-64
2023/12/25 00:49:59;;;;;;;1.83;1.73;;;;;;;5.67;nan;60398.59;4992204;28;20239;-64
2023/12/25 00:52:24;;;;;;;2.33;2.13;;;;;;;5.79;nan;60523.53;4992542;28;20188;-64
2023/12/25 00:54:50;;;;;;;1.43;1.37;;;;;;;5.89;nan;60392.88;4992491;28;20181;-62
2023/12/25 00:57:15;;;;;;;1.70;1.60;;;;;;;5.80;nan;60367.56;4992350;28;20180;-63
2023/12/25 00:59:41;;;;;;;3.30;1.83;;;;;;;5.84;nan;60374.00;4991922;28;20628;-65
2023/12/25 01:02:06;;;;;;;1.87;1.77;;;;;;;5.87;nan;60385.56;4985966;28;20192;-62
2023/12/25 01:04:31;;;;;;;1.63;1.53;;;;;;;5.87;nan;60377.41;4990857;28;20281;-63
2023/12/25 01:06:57;;;;;;;1.63;1.37;;;;;;;5.67;nan;60365.69;4992361;28;20205;-64
2023/12/25 01:09:22;;;;;;;1.20;1.07;;;;;;;5.61;nan;60351.34;4992169;28;20215;-67
2023/12/25 01:11:47;;;;;;;2.00;1.90;;;;;;;5.86;nan;60343.31;4992243;28;20243;-64
2023/12/25 01:14:13;;;;;;;4.57;1.80;;;;;;;5.89;nan;60387.81;4991835;28;20633;-68
2023/12/25 01:16:39;;;;;;;1.70;1.60;;;;;;;5.58;nan;60348.56;4992570;28;20227;-63
2023/12/25 01:19:04;;;;;;;1.97;1.87;;;;;;;5.78;nan;60451.47;4992036;28;20645;-66
2023/12/25 01:21:32;;;;;;;2.57;1.83;;;;;;;5.84;nan;60381.63;4991978;28;20620;-65
2023/12/25 01:23:57;;;;;;;2.80;2.60;;;;;;;5.68;nan;60338.94;4992191;28;20173;-63
2023/12/25 01:26:23;;;;;;;1.60;1.50;;;;;;;5.92;nan;60410.88;4994621;28;20211;-65
2023/12/25 01:28:48;;;;;;;1.97;1.87;;;;;;;5.82;nan;60329.28;4991736;28;20196;-64
2023/12/25 01:31:14;;;;;;;1.50;1.40;;;;;;;5.63;nan;60359.22;4991992;28;20232;-66
2023/12/25 01:33:39;;;;;;;1.80;1.70;;;;;;;5.97;nan;60406.34;4991689;28;20234;-66
2023/12/25 01:36:05;;;;;;;2.30;2.10;;;;;;;5.67;nan;60343.44;4991732;28;20668;-62
2023/12/25 01:38:31;;;;;;;3.10;2.90;;;;;;;5.78;nan;60390.66;4991759;28;20193;-62
2023/12/25 01:40:56;;;;;;;3.60;2.53;;;;;;;5.98;nan;60536.72;4991723;28;20663;-66
2023/12/25 01:43:23;;;;;;;1.50;1.40;;;;;;;5.77;nan;60324.25;4991306;28;20215;-65
2023/12/25 01:45:48;;;;;;;2.43;2.23;;;;;;;6.17;nan;60428.75;4988201;28;20207;-62
2023/12/25 01:48:14;;;;;;;2.00;1.83;;;;;;;5.94;nan;60382.72;4988894;28;20663;-62
2023/12/25 01:50:40;;;;;;;1.50;1.40;;;;;;;5.64;nan;60354.72;5006470;28;20302;-67
2023/12/25 01:53:05;;;;;;;1.50;1.40;;;;;;;5.89;nan;60410.59;4991578;28;20640;-65
2023/12/25 01:55:31;;;;;;;3.17;2.03;;;;;;;5.75;nan;60349.28;4990206;28;20219;-64
2023/12/25 01:57:57;;;;;;;1.83;1.73;;;;;;;5.57;nan;60435.50;4991118;28;20184;-62
2023/12/25 02:00:22;;;;;;;1.50;1.40;;;;;;;5.40;nan;60318.28;4991408;28;20176;-65
2023/12/25 02:02:48;;;;;;;1.60;1.50;;;;;;;5.16;nan;60332.47;4991650;28;20184;-65
2023/12/25 02:05:14;;;;;;;1.60;1.50;;;;;;;5.56;nan;60376.69;4991584;28;20169;-63
2023/12/25 02:07:42;;;;;;;6.03;1.77;;;;;;;5.32;nan;60304.81;4991754;28;20165;-67
2023/12/25 02:10:08;;;;;;;1.20;1.20;;;;;;;5.38;nan;60444.59;4991420;28;20200;-65
2023/12/25 02:12:35;;;;;;;1.53;1.43;;;;;;;5.33;nan;60359.09;4989897;28;20180;-63
2023/12/25 02:15:01;;;;;;;1.50;1.40;;;;;;;5.45;nan;60341.03;4991793;28;20169;-65
2023/12/25 02:17:28;;;;;;;1.83;1.73;;;;;;;5.44;nan;60317.13;4991762;28;20191;-65
2023/12/25 02:19:54;;;;;;;1.30;1.30;;;;;;;5.43;nan;60328.66;4991547;28;20679;-67
2023/12/25 02:22:19;;;;;;;1.73;1.63;;;;;;;5.36;nan;60487.94;4991389;28;20259;-64
2023/12/25 02:25:02;;;;;;;2.93;1.97;;;;;;;5.22;nan;60420.19;4991122;28;20620;-66
2023/12/25 02:27:28;;;;;;;1.77;1.67;;;;;;;5.33;nan;60302.84;4995232;28;20168;-64
2023/12/25 02:29:54;;;;;;;1.60;1.50;;;;;;;5.30;nan;60302.59;4991155;28;20312;-64
2023/12/25 02:32:19;;;;;;;8.00;3.73;;;;;;;5.25;nan;60365.34;4991485;28;20719;-62
2023/12/25 02:34:47;;;;;;;2.23;2.03;;;;;;;5.25;nan;60322.31;4991021;28;20188;-64
2023/12/25 02:37:13;;;;;;;1.60;1.50;;;;;;;5.19;nan;60305.44;4991168;28;20169;-63
2023/12/25 02:39:38;;;;;;;1.57;1.47;;;;;;;5.07;nan;60276.28;4991020;28;20181;-66
2023/12/25 02:42:04;;;;;;;4.30;2.00;;;;;;;5.20;nan;60422.44;4991487;28;20550;-66
2023/12/25 02:44:29;;;;;;;3.10;1.67;;;;;;;5.13;nan;60303.78;4991258;28;20239;-63
2023/12/25 02:46:54;;;;;;;1.50;1.40;;;;;;;5.20;nan;60280.69;4991394;28;20241;-64
2023/12/25 02:49:20;;;;;;;1.80;1.70;;;;;;;5.41;nan;60313.78;4990889;28;20197;-64
2023/12/25 02:51:45;;;;;;;1.87;1.77;;;;;;;5.36;nan;60290.47;4990984;28;20250;-66
2023/12/25 02:54:11;;;;;;;1.60;1.50;;;;;;;5.22;nan;60311.34;4991078;28;20716;-64
2023/12/25 02:56:36;;;;;;;1.57;1.47;;;;;;;5.22;nan;60356.34;4991515;28;20177;-62
2023/12/25 02:59:01;;;;;;;1.70;1.60;;;;;;;5.10;nan;60292.84;4995014;28;20605;-64
2023/12/25 03:01:27;;;;;;;3.33;1.60;;;;;;;4.95;nan;60255.28;4994897;28;20172;-64
2023/12/25 03:03:52;;;;;;;1.67;1.57;;;;;;;4.97;nan;60260.03;4994412;28;20173;-65
2023/12/25 03:06:17;;;;;;;1.50;1.40;;;;;;;5.11;nan;60258.53;4994512;28;20173;-66
2023/12/25 03:08:43;;;;;;;1.87;1.77;;;;;;;5.00;nan;60294.31;4994134;28;20206;-62
2023/12/25 03:11:08;;;;;;;1.90;1.70;;;;;;;4.84;nan;60220.75;4994568;28;20173;-62
2023/12/25 03:13:34;;;;;;;2.10;1.93;;;;;;;4.85;nan;60257.88;4994499;28;20667;-64
2023/12/25 03:16:07;;;;;;;1.53;1.43;;;;;;;4.67;nan;60201.78;4994092;28;20179;-64
2023/12/25 03:18:33;;;;;;;2.50;2.33;;;;;;;4.82;nan;60256.47;4994499;28;20183;-64
2023/12/25 03:20:58;;;;;;;2.03;1.83;;;;;;;4.62;nan;60259.41;4994295;28;20216;-65
2023/12/25 03:23:23;;;;;;;1.67;1.40;;;;;;;4.82;nan;60234.25;4993912;28;20667;-64
2023/12/25 03:25:49;;;;;;;1.70;1.60;;;;;;;4.53;nan;60261.97;4994725;28;20173;-66
2023/12/25 03:28:14;;;;;;;1.10;1.10;;;;;;;4.50;nan;60221.25;4994403;28;20282;-63
2023/12/25 03:30:39;;;;;;;1.57;1.47;;;;;;;4.91;nan;60291.81;4996669;28;20228;-67
2023/12/25 03:33:07;;;;;;;2.00;1.90;;;;;;;4.65;nan;60207.09;4994003;28;20613;-65
2023/12/25 03:35:33;;;;;;;1.20;1.20;;;;;;;4.84;nan;60211.22;4993934;28;20262;-66
2023/12/25 03:37:58;;;;;;;1.80;1.70;;;;;;;4.79;nan;60278.41;4994006;28;20169;-66
2023/12/25 03:40:24;;;;;;;1.60;1.50;;;;;;;4.73;nan;60223.63;4993925;28;20216;-65
2023/12/25 03:42:49;;;;;;;2.07;1.97;;;;;;;4.69;nan;60224.78;4994314;28;20211;-65
2023/12/25 03:45:14;;;;;;;2.57;1.83;;;;;;;4.54;nan;60088.63;4993847;28;20755;-64
2023/12/25 03:47:40;;;;;;;1.93;1.83;;;;;;;4.60;nan;60330.47;4993946;28;20177;-67
2023/12/25 03:50:06;;;;;;;1.37;1.27;;;;;;;4.80;nan;60216.84;4993475;28;20237;-66
2023/12/25 03:52:31;;;;;;;2.10;1.90;;;;;;;4.69;nan;60222.25;4993868;28;20177;-62
2023/12/25 03:54:56;;;;;;;1.77;1.67;;;;;;;4.90;nan;60245.19;4993730;28;20229;-62
2023/12/25 03:57:22;;;;;;;1.60;1.50;;;;;;;4.73;nan;60345.03;4993984;28;20239;-65
2023/12/25 03:59:47;;;;;;;1.50;1.40;;;;;;;4.66;nan;60190.53;4993381;28;20645;-65
2023/12/25 04:02:12;;;;;;;1.50;1.40;;;;;;;4.73;nan;60181.19;4993633;28;20619;-66
2023/12/25 04:04:41;;;;;;;1.40;1.30;;;;;;;4.35;nan;60156.44;4993828;28;20180;-63
2023/12/25 04:07:06;;;;;;;1.67;1.57;;;;;;;4.57;nan;60203.22;4993381;28;20186;-64
2023/12/25 04:09:32;;;;;;;1.70;1.60;;;;;;;4.45;nan;60183.34;4985858;28;20289;-65
2023/12/25 04:11:57;;;;;;;1.33;1.33;;;;;;;4.63;nan;60177.06;4982559;28;20660;-65
2023/12/25 04:14:22;;;;;;;1.30;1.30;;;;;;;4.34;nan;60191.28;4988241;28;20173;-63
2023/12/25 04:16:48;;;;;;;1.20;1.20;;;;;;;4.47;nan;60366.47;4987498;28;20250;-64
2023/12/25 04:19:13;;;;;;;1.47;1.37;;;;;;;4.31;nan;60122.22;4988487;28;20270;-66
2023/12/25 04:21:39;;;;;;;1.43;1.37;;;;;;;4.65;nan;60149.50;4989466;28;20215;-65
2023/12/25 04:24:04;;;;;;;1.43;1.37;;;;;;;4.70;nan;60222.81;4986949;28;20514;-62
2023/12/25 04:26:30;;;;;;;1.63;1.53;;;;;;;4.62;nan;60297.31;4986609;28;20664;-65
2023/12/25 04:28:55;;;;;;;1.83;1.73;;;;;;;4.59;nan;60147.31;4986493;28;20212;-64
2023/12/25 04:31:21;;;;;;;1.90;1.80;;;;;;;4.77;nan;60212.94;4989052;28;20236;-61
2023/12/25 04:33:49;;;;;;;1.73;1.63;;;;;;;4.84;nan;60198.56;4986822;28;20196;-64
2023/12/25 04:36:15;;;;;;;2.23;2.03;;;;;;;4.71;nan;60282.09;4987294;28;20193;-65
2023/12/25 04:38:41;;;;;;;1.60;1.50;;;;;;;4.90;nan;60228.03;4988732;28;20255;-62
2023/12/25 04:41:06;;;;;;;2.03;1.67;;;;;;;4.88;nan;60263.19;4988493;28;20185;-66
2023/12/25 04:43:32;;;;;;;1.70;1.60;;;;;;;4.87;nan;60244.34;4986634;28;20279;-64
2023/12/25 04:45:58;;;;;;;1.13;1.13;;;;;;;4.83;nan;60210.09;4987979;28;20188;-65
2023/12/25 04:48:23;;;;;;;1.80;1.70;;;;;;;4.62;nan;60218.94;4985415;28;20699;-63
2023/12/25 04:50:49;;;;;;;1.90;1.80;;;;;;;4.64;nan;60234.38;4985981;28;20514;-64
2023/12/25 04:53:14;;;;;;;1.43;1.33;;;;;;;4.65;nan;60257.69;4986442;28;20611;-64
2023/12/25 04:55:40;;;;;;;1.40;1.30;;;;;;;4.43;nan;60213.41;4990408;28;20180;-63
2023/12/25 04:58:06;;;;;;;1.63;1.53;;;;;;;4.52;nan;60210.28;4986328;28;20574;-63
2023/12/25 05:00:32;;;;;;;1.63;1.53;;;;;;;4.61;nan;60218.38;4986255;28;20185;-64
2023/12/25 05:02:58;;;;;;;1.20;1.20;;;;;;;4.61;nan;60225.97;4986667;28;20181;-63
2023/12/25 05:05:23;;;;;;;1.33;1.30;;;;;;;4.68;nan;60205.97;4987707;28;20197;-66
2023/12/25 05:07:49;;;;;;;1.60;1.50;;;;;;;4.65;nan;60214.69;4988072;28;20240;-63
2023/12/25 05:10:14;;;;;;;1.30;1.30;;;;;;;4.52;nan;60200.72;4984982;28;20664;-65
2023/12/25 05:12:40;;;;;;;1.83;1.73;;;;;;;4.49;nan;60227.13;4987475;28;20184;-65
2023/12/25 05:15:06;;;;;;;1.20;1.20;;;;;;;4.53;nan;60198.75;4986421;28;20229;-64
2023/12/25 05:17:32;;;;;;;1.30;1.30;;;;;;;4.49;nan;60212.53;4985640;28;20196;-63
2023/12/25 05:19:58;;;;;;;1.50;1.40;;;;;;;4.42;nan;60207.81;4985670;28;20207;-64
2023/12/25 05:22:23;;;;;;;1.20;1.20;;;;;;;4.33;nan;60199.72;4985985;28;20644;-67
2023/12/25 05:24:48;;;;;;;1.90;1.80;;;;;;;4.51;nan;60194.00;4985744;28;20668;-62
2023/12/25 05:27:14;;;;;;;3.17;2.00;;;;;;;4.59;nan;60223.72;4986013;28;20675;-65
2023/12/25 05:29:39;;;;;;;1.70;1.60;;;;;;;4.48;nan;60167.91;4985928;28;20295;-66
2023/12/25 05:32:05;;;;;;;2.23;1.60;;;;;;;4.51;nan;60340.63;4987631;28;20598;-63
2023/12/25 05:34:30;;;;;;;1.40;1.30;;;;;;;4.45;nan;60190.94;4990720;28;20195;-64
2023/12/25 05:36:56;;;;;;;1.60;1.50;;;;;;;4.66;nan;60225.94;4985986;28;20180;-65
2023/12/25 05:39:22;;;;;;;1.40;1.30;;;;;;;4.54;nan;60210.53;4986708;28;20183;-64
2023/12/25 05:41:47;;;;;;;1.30;1.30;;;;;;;4.72;nan;60222.50;4986277;28;20180;-65
2023/12/25 05:44:13;;;;;;;1.50;1.40;;;;;;;4.38;nan;60236.19;4985288;28;20185;-66
2023/12/25 05:46:38;;;;;;;1.80;1.70;;;;;;;4.63;nan;60273.13;4985920;28;20270;-66
2023/12/25 05:49:05;;;;;;;1.50;1.40;;;;;;;4.59;nan;60197.88;4985513;28;20200;-66
2023/12/25 05:51:30;;;;;;;1.60;1.50;;;;;;;4.36;nan;60276.34;4985324;28;20603;-63
2023/12/25 05:53:56;;;;;;;1.50;1.40;;;;;;;4.42;nan;60215.38;4985300;28;20177;-65
2023/12/25 05:56:22;;;;;;;1.67;1.57;;;;;;;4.64;nan;60231.28;4985596;28;20177;-64
2023/12/25 05:58:48;;;;;;;1.20;1.20;;;;;;;4.66;nan;60193.06;4987496;28;20184;-62
2023/12/25 06:01:13;;;;;;;1.37;1.33;;;;;;;4.67;nan;60158.78;4987423;28;20191;-64
2023/12/25 06:03:40;;;;;;;1.50;1.40;;;;;;;4.64;nan;60223.69;4984627;28;20228;-64
2023/12/25 06:06:05;;;;;;;1.70;1.60;;;;;;;4.80;nan;60239.63;4986487;28;20216;-67
2023/12/25 06:08:31;;;;;;;2.13;1.93;;;;;;;4.60;nan;60214.16;4986426;28;20263;-68
2023/12/25 06:11:00;;;;;;;2.07;1.30;;;;;;;4.78;nan;60219.13;4985316;28;20315;-69
2023/12/25 06:13:25;;;;;;;2.57;2.37;;;;;;;4.61;nan;60263.34;4985281;28;20197;-67
2023/12/25 06:15:51;;;;;;;1.97;1.87;;;;;;;4.81;nan;60242.69;4985196;28;20695;-66
2023/12/25 06:18:17;;;;;;;1.73;1.63;;;;;;;4.61;nan;60205.16;4989319;28;20185;-69
2023/12/25 06:20:43;;;;;;;1.40;1.33;;;;;;;4.98;nan;60226.31;4985131;28;20240;-69
2023/12/25 06:23:08;;;;;;;1.60;1.50;;;;;;;4.91;nan;60248.81;4991870;28;20288;-69
2023/12/25 06:25:34;;;;;;;1.13;1.13;;;;;;;5.06;nan;60273.19;4986300;28;20574;-66
2023/12/25 06:28:00;;;;;;;1.93;1.47;;;;;;;4.91;nan;60205.81;4987230;28;20185;-69
2023/12/25 06:30:28;;;;;;;1.10;1.10;;;;;;;5.29;nan;60273.63;5001543;28;21379;-66
2023/12/25 06:32:54;;;;;;;1.53;1.43;;;;;;;5.12;nan;60279.34;4987369;28;20226;-67
2023/12/25 06:35:19;;;;;;;1.50;1.40;;;;;;;5.21;nan;60253.97;4992292;28;20211;-63
2023/12/25 06:37:45;;;;;;;1.73;1.63;;;;;;;5.55;nan;60294.53;4990848;28;20224;-68
2023/12/25 06:40:11;;;;;;;1.80;1.70;;;;;;;5.50;nan;60296.00;4989016;28;20192;-65
2023/12/25 06:42:36;;;;;;;2.67;1.90;;;;;;;5.83;nan;60381.06;4988844;28;20294;-66
2023/12/25 06:45:01;;;;;;;1.70;1.60;;;;;;;5.98;nan;60362.41;4988589;28;20679;-66
2023/12/25 06:47:27;;;;;;;1.60;1.50;;;;;;;6.00;nan;60537.00;4988781;28;20687;-65
2023/12/25 06:49:53;;;;;;;1.50;1.40;;;;;;;5.73;nan;60354.66;4988694;28;20241;-66
2023/12/25 06:52:19;;;;;;;1.67;1.57;;;;;;;6.05;nan;60390.53;4989468;28;20232;-63
2023/12/25 06:54:45;;;;;;;1.60;1.50;;;;;;;6.11;nan;60414.97;4991323;28;20197;-67
2023/12/25 06:57:13;;;;;;;1.20;1.20;;;;;;;6.10;nan;60380.91;4992906;28;20184;-66
2023/12/25 06:59:43;;;;;;;1.97;1.87;;;;;;;6.21;nan;60408.44;4989234;28;20201;-66
2023/12/25 07:02:08;;;;;;;1.80;1.70;;;;;;;6.44;nan;60428.59;4989259;28;20280;-66
2023/12/25 07:04:34;;;;;;;3.97;2.20;;;;;;;6.53;nan;60430.50;4989433;28;20661;-64
2023/12/25 07:07:00;;;;;;;1.53;1.43;;;;;;;6.66;nan;60450.69;4988244;28;20192;-63
2023/12/25 07:09:26;;;;;;;1.53;1.43;;;;;;;6.63;nan;60424.50;4988018;28;20215;-66
2023/12/25 07:11:51;;;;;;;1.87;1.77;;;;;;;6.91;nan;60464.91;4988481;28;20395;-63
2023/12/25 07:14:18;;;;;;;1.87;1.77;;;;;;;6.96;nan;60504.09;4988039;28;20616;-67
2023/12/25 07:16:43;;;;;;;1.50;1.40;;;;;;;7.29;nan;60504.44;4988097;28;20204;-66
2023/12/25 07:19:09;;;;;;;2.00;1.90;;;;;;;7.18;nan;60507.31;4988760;28;20182;-66
2023/12/25 07:21:34;;;;;;;2.13;1.70;;;;;;;7.22;nan;60491.50;4989014;28;20188;-65
2023/12/25 07:24:00;;;;;;;2.53;2.33;;;;;;;7.55;nan;60518.91;4989870;28;20195;-63
2023/12/25 07:26:25;;;;;;;1.50;1.40;;;;;;;7.72;nan;60524.69;4989673;28;20192;-66
2023/12/25 07:28:51;;;;;;;1.80;1.70;;;;;;;7.86;nan;60560.19;4988408;28;20181;-66
2023/12/25 07:31:17;;;;;;;2.30;2.13;;;;;;;7.96;nan;60564.34;4989473;28;20228;-65
2023/12/25 07:33:42;;;;;;;1.40;1.33;;;;;;;8.36;nan;60631.03;4987751;28;20276;-68
2023/12/25 07:36:08;;;;;;;3.53;1.70;;;;;;;8.60;nan;60657.97;4987882;28;20636;-67
2023/12/25 07:38:34;;;;;;;1.80;1.70;;;;;;;8.73;nan;60662.41;4994804;28;20187;-67
2023/12/25 07:41:00;;;;;;;2.10;1.90;;;;;;;8.72;nan;60635.84;4987708;28;20181;-67
2023/12/25 07:43:26;;;;;;;1.60;1.50;;;;;;;9.24;nan;60711.53;4986566;28;20656;-66
2023/12/25 07:45:52;;;;;;;1.77;1.67;;;;;;;9.20;nan;60679.00;4987503;28;20185;-65
2023/12/25 07:48:18;;;;;;;2.00;1.80;;;;;;;9.38;nan;60764.38;4988483;28;20193;-64
2023/12/25 07:50:43;;;;;;;1.98;1.88;;;;;;;9.79;nan;60937.47;5004863;28;20282;-63
2023/12/25 07:53:09;;;;;;;2.23;2.03;;;;;;;9.99;nan;60756.44;4989666;28;20184;-65
2023/12/25 07:55:37;;;;;;;1.30;1.20;;;;;;;10.29;nan;60845.25;4987517;28;20192;-68
2023/12/25 07:58:02;;;;;;;2.15;1.35;;;;;;;10.26;nan;60888.38;4988796;28;20199;-68
2023/12/25 08:00:28;;;;;;;1.30;1.20;;;;;;;10.45;nan;60812.75;4987828;28;20184;-67
2023/12/25 08:02:54;;;;;;;0.95;0.95;;;;;;;10.28;nan;60796.19;4987380;28;20235;-63
2023/12/25 08:05:19;;;;;;;1.15;1.15;;;;;;;10.70;nan;60873.53;4987196;28;20176;-68
2023/12/25 08:07:45;;;;;;;2.38;1.60;;;;;;;10.69;nan;60864.19;4987107;28;20195;-63
2023/12/25 08:10:13;;;;;;;1.13;1.10;;;;;;;10.85;nan;60900.66;4987186;28;20220;-67
2023/12/25 08:12:43;;;;;;;1.40;1.30;;;;;;;11.35;nan;60897.03;4987209;28;20178;-65
2023/12/25 08:15:10;;;;;;;1.17;1.17;;;;;;;11.51;nan;60925.84;4987055;28;20185;-67
2023/12/25 08:17:35;;;;;;;1.40;1.30;;;;;;;11.53;nan;60953.69;4988269;28;20235;-67
2023/12/25 08:20:01;;;;;;;1.58;1.48;;;;;;;12.02;nan;60999.56;4989138;28;20272;-64
2023/12/25 08:22:26;;;;;;;1.10;1.10;;;;;;;12.05;nan;61000.38;4989022;28;20210;-66
2023/12/25 08:24:52;;;;;;;1.40;1.30;;;;;;;12.27;nan;61007.81;4987343;28;20768;-66
2023/12/25 08:27:17;;;;;;;1.40;1.30;;;;;;;12.61;nan;61063.53;4988376;28;20199;-65
2023/12/25 08:29:43;;;;;;;0.90;0.90;;;;;;;12.67;nan;61064.63;4986655;28;20204;-67
2023/12/25 08:32:08;;;;;;;0.90;0.90;;;;;;;12.92;nan;61097.94;4987176;28;20235;-66
2023/12/25 08:34:37;;;;;;;1.25;1.15;;;;;;;12.96;nan;61114.72;4986739;28;20185;-63
2023/12/25 08:37:03;;;;;;;1.58;1.40;;;;;;;13.26;nan;61110.69;4986877;28;20185;-63
2023/12/25 08:39:28;;;;;;;1.00;1.00;;;;;;;13.28;nan;61089.28;4987423;28;20251;-67
2023/12/25 08:41:54;;;;;;;1.15;1.10;;;;;;;13.32;nan;61098.94;4986624;28;20221;-66
2023/12/25 08:44:19;;;;;;;1.08;1.02;;;;;;;13.66;nan;61145.00;4986722;28;20205;-65
2023/12/25 08:46:46;;;;;;;1.00;1.00;;;;;;;13.47;nan;61135.81;4988276;28;20185;-64
2023/12/25 08:49:12;;;;;;;1.65;1.08;;;;;;;13.74;nan;61104.69;4988451;28;20205;-63
2023/12/25 08:51:38;;;;;;;1.50;1.40;;;;;;;13.77;nan;61156.31;4987124;28;20199;-65
2023/12/25 08:54:03;;;;;;;1.40;1.30;;;;;;;13.91;nan;61174.69;4987574;28;20191;-64
2023/12/25 08:56:29;;;;;;;1.30;1.25;;;;;;;14.05;nan;61188.50;4986544;28;20177;-66
2023/12/25 08:58:54;;;;;;;1.08;1.08;;;;;;;13.56;nan;61051.03;4985612;28;20272;-65
2023/12/25 09:01:24;;;;;;;1.45;1.35;;;;;;;14.17;nan;61206.59;4986473;28;20671;-63
2023/12/25 09:03:49;;;;;;;0.95;0.95;;;;;;;14.23;nan;61253.94;4986451;28;20577;-66
2023/12/25 09:06:15;;;;;;;1.30;1.27;;;;;;;14.51;nan;61185.94;4986103;28;20188;-64
2023/12/25 09:08:41;;;;;;;1.70;1.25;;;;;;;14.71;nan;61284.50;4986506;28;20189;-68
2023/12/25 09:11:09;;;;;;;1.00;1.00;;;;;;;15.01;nan;61290.16;4986109;28;20571;-69
2023/12/25 09:13:34;;;;;;;1.15;1.13;;;;;;;15.04;nan;61288.97;4986751;28;20185;-67
2023/12/25 09:16:00;;;;;;;1.20;1.20;;;;;;;15.37;nan;61487.88;4988078;28;20177;-65
2023/12/25 09:18:26;;;;;;;0.90;0.90;;;;;;;15.45;nan;61350.19;4987541;28;20205;-67
2023/12/25 09:20:51;;;;;;;1.25;1.17;;;;;;;15.76;nan;61492.34;4987021;28;20184;-67
2023/12/25 09:23:18;;;;;;;1.25;1.15;;;;;;;15.92;nan;61355.91;4989846;28;20568;-65
2023/12/25 09:25:43;;;;;;;0.90;0.90;;;;;;;15.97;nan;61346.09;4986406;28;20192;-65
2023/12/25 09:28:09;;;;;;;1.10;1.10;;;;;;;16.00;nan;61428.81;4985623;28;20184;-66
2023/12/25 09:30:34;;;;;;;1.00;1.00;;;;;;;16.02;nan;61389.84;4985690;28;20236;-66
2023/12/25 09:33:00;;;;;;;1.27;1.17;;;;;;;16.02;nan;61403.28;4985675;28;20193;-65
2023/12/25 09:35:25;;;;;;;1.00;1.00;;;;;;;16.08;nan;61376.00;4985702;28;20216;-65
2023/12/25 09:37:51;;;;;;;0.95;0.95;;;;;;;16.13;nan;61399.72;4985761;28;20208;-62
2023/12/25 09:40:16;;;;;;;0.90;0.90;;;;;;;16.28;nan;61409.50;4986568;28;20185;-63
2023/12/25 09:42:43;;;;;;;0.80;0.80;;;;;;;16.58;nan;61455.25;4987371;28;20176;-63
2023/12/25 09:45:10;;;;;;;0.77;0.77;;;;;;;16.39;nan;61436.31;4987687;28;20182;-62
2023/12/25 09:47:36;;;;;;;0.90;0.90;;;;;;;16.57;nan;61431.47;4986306;28;20216;-64
2023/12/25 09:50:03;;;;;;;1.40;1.30;;;;;;;16.63;nan;61451.19;4986443;28;20758;-62
2023/12/25 09:52:29;;;;;;;0.90;0.90;;;;;;;16.77;nan;61474.78;4985931;28;20275;-65
2023/12/25 09:54:54;;;;;;;1.00;1.00;;;;;;;17.10;nan;61441.31;4984930;28;20271;-65
2023/12/25 09:57:21;;;;;;;0.93;0.90;;;;;;;16.84;nan;61473.81;4985287;28;20188;-65
2023/12/25 09:59:52;;;;;;;0.77;0.77;;;;;;;17.05;nan;61511.09;4985052;28;20188;-66
2023/12/25 10:02:22;;;;;;;0.90;0.90;;;;;;;17.44;nan;61531.47;4985238;28;20192;-64
2023/12/25 10:04:49;;;;;;;0.73;0.73;;;;;;;17.37;nan;61497.72;4985326;28;20202;-63
2023/12/25 10:07:21;;;;;;;1.80;1.27;;;;;;;17.61;nan;61514.03;4984609;28;20708;-66
2023/12/25 10:09:53;;;;;;;0.90;0.90;;;;;;;17.55;nan;61541.34;4984757;28;20232;-62
2023/12/25 10:12:19;;;;;;;1.00;0.90;;;;;;;17.89;nan;61571.03;4987011;28;20767;-65
2023/12/25 10:14:46;;;;;;;0.93;0.93;;;;;;;17.68;nan;61568.44;4991560;28;20184;-62
2023/12/25 10:17:11;;;;;;;0.80;0.80;;;;;;;17.86;nan;61583.13;4991252;28;20177;-64
2023/12/25 10:19:56;;;;;;;1.05;1.05;;;;;;;17.87;nan;61558.41;4990939;28;20728;-65
2023/12/25 10:22:32;;;;;;;0.80;0.80;;;;;;;17.83;nan;61531.19;4990845;28;20184;-65
2023/12/25 10:25:10;;;;;;;1.48;1.38;;;;;;;17.85;nan;61574.25;5006285;28;20334;-64
2023/12/25 10:27:40;;;;;;;1.45;1.30;;;;;;;17.91;nan;61604.31;4991323;28;20633;-64
2023/12/25 10:30:18;;;;;;;1.00;1.00;;;;;;;18.11;nan;61748.53;4991103;28;20211;-65
2023/12/25 10:32:44;;;;;;;1.20;1.10;;;;;;;18.10;nan;61597.97;4991369;28;20192;-67
2023/12/25 10:35:19;;;;;;;0.80;0.80;;;;;;;18.12;nan;61563.50;4991051;28;20252;-63
2023/12/25 10:37:45;;;;;;;0.70;0.70;;;;;;;18.08;nan;61626.16;4991365;28;20539;-65
2023/12/25 10:40:22;;;;;;;0.70;0.70;;;;;;;18.45;nan;61626.19;4993054;28;20260;-63
2023/12/25 10:42:50;;;;;;;0.80;0.80;;;;;;;18.23;nan;61609.56;4992053;28;20176;-63
2023/12/25 10:45:22;;;;;;;1.15;1.00;;;;;;;18.37;nan;61653.91;4990990;28;20173;-65
2023/12/25 10:47:51;;;;;;;1.38;1.27;;;;;;;18.31;nan;61672.94;4991058;28;20255;-67
2023/12/25 10:50:22;;;;;;;1.20;1.00;;;;;;;18.50;nan;61609.13;5005893;28;20688;-66
2023/12/25 10:52:50;;;;;;;0.90;0.90;;;;;;;18.43;nan;61585.69;4991000;28;20176;-66
2023/12/25 10:55:26;;;;;;;0.77;0.77;;;;;;;18.70;nan;61654.56;4991114;28;20214;-62
2023/12/25 10:57:52;;;;;;;0.85;0.85;;;;;;;18.73;nan;61659.97;4990932;28;20197;-65
2023/12/25 11:00:20;;;;;;;1.10;1.00;;;;;;;18.62;nan;61673.41;4991336;28;20183;-63
2023/12/25 11:02:51;;;;;;;0.70;0.70;;;;;;;18.72;nan;61620.03;4991211;28;20252;-64
2023/12/25 11:05:17;;;;;;;0.98;0.98;;;;;;;18.86;nan;61648.88;4991475;28;20272;-65
2023/12/25 11:07:43;;;;;;;0.90;0.90;;;;;;;18.62;nan;61601.50;4991162;28;20185;-66
2023/12/25 11:10:11;;;;;;;0.93;0.93;;;;;;;18.85;nan;61660.66;4990703;28;20276;-67
2023/12/25 11:12:38;;;;;;;1.63;1.23;;;;;;;19.08;nan;61663.47;4991407;28;20624;-64
2023/12/25 11:15:05;;;;;;;0.88;0.88;;;;;;;19.08;nan;61694.53;4990979;28;20173;-68
2023/12/25 11:17:32;;;;;;;4.47;2.30;;;;;;;18.90;nan;61650.81;4991101;28;20647;-66
2023/12/25 11:19:57;;;;;;;1.55;1.35;;;;;;;19.05;nan;61664.66;5009502;28;20589;-64
2023/12/25 11:22:30;;;;;;;1.35;1.23;;;;;;;19.24;nan;61676.41;4994351;28;20216;-64
2023/12/25 11:24:57;;;;;;;0.90;0.90;;;;;;;19.24;nan;61756.16;4994796;28;20157;-66
2023/12/25 11:27:25;;;;;;;1.20;1.00;;;;;;;19.33;nan;61712.53;4994307;28;20263;-66
2023/12/25 11:29:50;;;;;;;4.57;1.25;;;;;;;19.42;nan;61733.13;4994260;28;20699;-64
2023/12/25 11:32:22;;;;;;;1.00;1.00;;;;;;;19.39;nan;61758.22;4994942;28;20256;-66
2023/12/25 11:34:49;;;;;;;0.90;0.90;;;;;;;19.48;nan;61754.38;4994095;28;20258;-66
2023/12/25 11:37:19;;;;;;;0.80;0.80;;;;;;;19.46;nan;61689.91;4993734;28;20176;-64
2023/12/25 11:39:52;;;;;;;2.47;1.20;;;;;;;19.51;nan;61786.28;4994342;28;20263;-66
2023/12/25 11:42:18;;;;;;;0.50;0.50;;;;;;;19.83;nan;61768.22;4996056;28;20173;-66
2023/12/25 11:44:43;;;;;;;0.80;0.80;;;;;;;19.81;nan;61776.28;4994371;28;20251;-65
2023/12/25 11:47:08;;;;;;;0.65;0.65;;;;;;;19.83;nan;61799.91;4993996;28;20199;-67
2023/12/25 11:49:39;;;;;;;0.77;0.77;;;;;;;19.81;nan;61947.44;4993754;28;20216;-63
2023/12/25 11:52:04;;;;;;;1.00;1.00;;;;;;;19.80;nan;61692.19;4993921;28;20252;-66